createdAt,value
2023-04-14T00:02:36.223Z,8.27
2023-04-14T00:05:38.704Z,7.97
2023-04-14T00:08:40.851Z,5.87
2023-04-14T00:11:43.414Z,7.70
2023-04-14T00:14:45.889Z,5.78
2023-04-14T00:17:48.266Z,6.82
2023-04-14T00:20:50.528Z,7.35
2023-04-14T00:23:52.911Z,6.35
2023-04-14T00:26:55.083Z,6.80
2023-04-14T00:29:57.563Z,6.15
2023-04-14T00:32:59.700Z,6.55
2023-04-14T00:36:02.163Z,9.27
2023-04-14T00:39:04.742Z,7.93
2023-04-14T00:42:07.158Z,6.45
2023-04-14T00:45:09.624Z,7.80
2023-04-14T00:48:13.710Z,6.22
2023-04-14T00:51:16.085Z,8.85
2023-04-14T00:54:20.001Z,5.97
2023-04-14T00:57:22.311Z,6.25
2023-04-14T01:00:24.823Z,6.05
2023-04-14T01:03:27.272Z,7.15
2023-04-14T01:06:30.312Z,6.28
2023-04-14T01:09:32.478Z,6.53
2023-04-14T01:12:35.626Z,6.55
2023-04-14T01:15:49.784Z,7.47
2023-04-14T01:19:01.207Z,6.68
2023-04-14T01:22:06.466Z,7.25
2023-04-14T01:25:36.783Z,6.17
2023-04-14T01:29:20.489Z,6.20
2023-04-14T01:32:26.686Z,6.12
2023-04-14T01:35:43.650Z,7.15
2023-04-14T01:38:50.486Z,9.00
2023-04-14T01:41:56.998Z,6.65
2023-04-14T01:45:06.754Z,8.90
2023-04-14T01:48:10.063Z,6.90
2023-04-14T01:51:18.184Z,8.02
2023-04-14T01:57:26.382Z,7.20
2023-04-14T02:00:29.186Z,6.72
2023-04-14T02:03:32.698Z,8.00
2023-04-14T02:06:36.626Z,5.85
2023-04-14T02:09:41.855Z,8.13
2023-04-14T02:12:44.759Z,8.07
2023-04-14T02:15:50.979Z,6.57
2023-04-14T02:18:54.475Z,7.28
2023-04-14T02:21:57.613Z,8.60
2023-04-14T02:24:59.815Z,6.07
2023-04-14T02:28:18.233Z,5.75
2023-04-14T02:31:23.830Z,6.70
2023-04-14T02:34:32.126Z,8.93
2023-04-14T02:37:38.569Z,5.55
2023-04-14T02:40:42.344Z,7.43
2023-04-14T02:43:55.093Z,7.93
2023-04-14T02:47:06.828Z,6.40
2023-04-14T02:50:13.894Z,7.37
2023-04-14T02:53:22.108Z,6.25
2023-04-14T02:56:26.282Z,6.12
2023-04-14T02:59:32.117Z,6.07
2023-04-14T03:02:36.093Z,7.43
2023-04-14T03:05:41.309Z,5.78
2023-04-14T03:08:44.563Z,7.00
2023-04-14T03:11:50.451Z,5.50
2023-04-14T03:14:54.445Z,7.37
2023-04-14T03:17:58.736Z,6.37
2023-04-14T03:21:02.396Z,6.45
2023-04-14T03:24:06.959Z,7.05
2023-04-14T03:27:22.728Z,7.93
2023-04-14T03:30:30.353Z,6.00
2023-04-14T03:33:34.034Z,5.93
2023-04-14T03:36:37.670Z,5.15
2023-04-14T03:39:41.242Z,6.28
2023-04-14T03:42:46.242Z,7.40
2023-04-14T03:45:50.075Z,7.78
2023-04-14T03:48:54.543Z,7.32
2023-04-14T03:52:02.597Z,6.45
2023-04-14T03:55:07.428Z,6.45
2023-04-14T03:58:13.339Z,7.12
2023-04-14T04:01:17.853Z,10.02
2023-04-14T04:05:10.761Z,10.85
2023-04-14T04:08:14.951Z,8.80
2023-04-14T04:11:18.817Z,6.70
2023-04-14T04:14:23.650Z,6.55
2023-04-14T04:17:29.841Z,9.50
2023-04-14T04:20:34.359Z,7.55
2023-04-14T04:23:41.663Z,7.85
2023-04-14T04:26:44.298Z,10.45
2023-04-14T04:29:47.695Z,11.12
2023-04-14T04:32:51.279Z,7.25
2023-04-14T04:35:56.243Z,6.65
2023-04-14T04:39:00.422Z,7.90
2023-04-14T04:42:04.520Z,7.97
2023-04-14T04:45:07.273Z,8.70
2023-04-14T04:48:10.922Z,8.73
2023-04-14T04:51:14.792Z,8.10
2023-04-14T04:54:17.769Z,9.63
2023-04-14T04:57:20.242Z,8.48
2023-04-14T05:00:23.001Z,6.97
2023-04-14T05:03:25.449Z,9.75
2023-04-14T05:06:28.175Z,12.02
2023-04-14T05:09:30.556Z,9.70
2023-04-14T05:12:32.707Z,12.68
2023-04-14T05:15:35.238Z,11.05
2023-04-14T05:18:37.416Z,7.65
2023-04-14T05:21:40.127Z,13.02
2023-04-14T05:24:47.999Z,9.73
2023-04-14T05:27:50.350Z,7.78
2023-04-14T05:30:52.573Z,10.20
2023-04-14T05:33:55.105Z,10.35
2023-04-14T05:36:57.299Z,9.68
2023-04-14T05:40:00.055Z,9.00
2023-04-14T05:43:02.255Z,8.63
2023-04-14T05:46:04.853Z,12.80
2023-04-14T05:49:07.267Z,9.45
2023-04-14T05:52:09.623Z,10.35
2023-04-14T05:55:11.871Z,9.27
2023-04-14T05:58:14.873Z,9.48
2023-04-14T06:01:17.019Z,10.23
2023-04-14T06:04:19.590Z,8.02
2023-04-14T06:07:22.281Z,11.05
2023-04-14T06:10:24.707Z,11.07
2023-04-14T06:13:27.958Z,10.07
2023-04-14T06:16:32.292Z,10.75
2023-04-14T06:19:34.676Z,11.38
2023-04-14T06:22:37.364Z,11.95
2023-04-14T06:25:39.905Z,9.63
2023-04-14T06:28:44.298Z,8.88
2023-04-14T06:31:47.013Z,9.65
2023-04-14T06:34:52.665Z,13.48
2023-04-14T06:37:55.521Z,16.23
2023-04-14T06:40:57.869Z,12.05
2023-04-14T06:44:00.209Z,9.73
2023-04-14T06:47:02.627Z,9.98
2023-04-14T06:50:05.239Z,9.55
2023-04-14T06:53:09.192Z,10.70
2023-04-14T06:56:11.381Z,10.07
2023-04-14T06:59:13.986Z,10.73
2023-04-14T07:02:16.290Z,8.65
2023-04-14T07:05:19.255Z,10.40
2023-04-14T07:08:21.985Z,12.43
2023-04-14T07:11:25.082Z,10.50
2023-04-14T07:14:27.441Z,9.80
2023-04-14T07:17:30.430Z,10.02
2023-04-14T07:20:32.776Z,9.10
2023-04-14T07:23:35.214Z,9.02
2023-04-14T07:26:37.455Z,12.45
2023-04-14T07:29:39.802Z,7.90
2023-04-14T07:32:42.290Z,10.23
2023-04-14T07:36:01.354Z,9.80
2023-04-14T07:39:04.879Z,9.80
2023-04-14T07:42:07.499Z,11.68
2023-04-14T07:45:10.161Z,10.25
2023-04-14T07:48:12.720Z,11.85
2023-04-14T07:51:14.912Z,10.82
2023-04-14T07:54:17.322Z,9.13
2023-04-14T07:57:19.452Z,10.07
2023-04-14T08:00:23.073Z,10.52
2023-04-14T08:03:26.120Z,20.42
2023-04-14T08:06:28.527Z,10.88
2023-04-14T08:09:30.986Z,11.75
2023-04-14T08:12:33.127Z,8.40
2023-04-14T08:15:35.669Z,8.85
2023-04-14T08:18:40.757Z,8.88
2023-04-14T08:26:09.579Z,9.90
2023-04-14T08:29:11.985Z,10.88
2023-04-14T08:32:14.172Z,14.13
2023-04-14T08:35:39.581Z,10.05
2023-04-14T08:38:39.062Z,9.32
2023-04-14T08:41:42.780Z,12.57
2023-04-14T08:44:45.023Z,10.13
2023-04-14T08:47:51.663Z,12.93
2023-04-14T08:51:33.649Z,15.73
2023-04-14T08:54:39.910Z,11.90
2023-04-14T09:00:48.397Z,11.18
2023-04-14T09:03:51.405Z,10.43
2023-04-14T09:06:56.643Z,12.95
2023-04-14T09:09:59.994Z,11.73
2023-04-14T09:13:04.227Z,12.00
2023-04-14T09:16:07.904Z,11.48
2023-04-14T09:19:10.883Z,12.30
2023-04-14T09:22:13.352Z,11.00
2023-04-14T09:25:16.438Z,11.98
2023-04-14T09:28:18.582Z,12.95
2023-04-14T09:31:21.115Z,12.32
2023-04-14T09:34:23.982Z,13.02
2023-04-14T09:37:26.999Z,11.52
2023-04-14T09:40:30.869Z,14.30
2023-04-14T09:43:33.945Z,10.93
2023-04-14T09:46:36.676Z,14.73
2023-04-14T09:49:56.694Z,14.07
2023-04-14T09:53:04.238Z,11.40
2023-04-14T09:56:09.660Z,13.13
2023-04-14T09:59:12.908Z,12.75
2023-04-14T10:02:15.706Z,14.50
2023-04-14T10:05:30.439Z,13.90
2023-04-14T10:08:40.937Z,14.68
2023-04-14T10:11:43.339Z,13.10
2023-04-14T10:14:46.424Z,12.48
2023-04-14T10:17:48.978Z,14.32
2023-04-14T10:20:52.261Z,17.65
2023-04-14T10:23:58.130Z,13.45
2023-04-14T10:27:03.293Z,15.82
2023-04-14T10:30:08.808Z,12.65
2023-04-14T10:33:11.080Z,16.20
2023-04-14T10:36:23.302Z,13.43
2023-04-14T10:39:26.605Z,15.70
2023-04-14T10:42:32.977Z,13.88
2023-04-14T10:45:53.183Z,16.08
2023-04-14T10:48:57.495Z,14.38
2023-04-14T10:52:03.457Z,14.87
2023-04-14T10:55:09.841Z,16.27
2023-04-14T10:58:23.815Z,12.50
2023-04-14T11:01:31.548Z,17.48
2023-04-14T11:04:54.489Z,16.45
2023-04-14T11:08:03.125Z,15.10
2023-04-14T11:11:06.951Z,19.33
2023-04-14T11:14:12.880Z,15.68
2023-04-14T11:17:23.078Z,15.07
2023-04-14T11:20:26.067Z,15.57
2023-04-14T11:23:28.660Z,15.57
2023-04-14T11:26:31.636Z,13.85
2023-04-14T11:29:34.499Z,15.38
2023-04-14T11:32:51.669Z,15.43
2023-04-14T11:35:54.721Z,15.93
2023-04-14T11:38:59.650Z,13.38
2023-04-14T11:42:04.498Z,16.20
2023-04-14T11:45:09.778Z,18.50
2023-04-14T11:48:13.168Z,15.80
2023-04-14T11:51:19.001Z,16.40
2023-04-14T11:54:21.470Z,19.50
2023-04-14T11:57:24.342Z,16.52
2023-04-14T12:00:28.175Z,16.42
2023-04-14T12:03:35.720Z,12.60
2023-04-14T12:06:40.682Z,14.55
2023-04-14T12:09:48.905Z,16.55
2023-04-14T12:12:59.011Z,13.40
2023-04-14T12:16:01.696Z,10.90
2023-04-14T12:19:04.598Z,9.43
2023-04-14T12:22:12.092Z,10.15
2023-04-14T12:25:15.087Z,9.75
2023-04-14T12:28:28.922Z,7.57
2023-04-14T12:31:33.973Z,10.10
2023-04-14T12:34:37.456Z,8.85
2023-04-14T12:37:41.418Z,7.97
2023-04-14T12:40:48.088Z,7.60
2023-04-14T12:43:50.799Z,7.45
2023-04-14T12:46:55.694Z,8.63
2023-04-14T12:50:03.172Z,7.62
2023-04-14T12:53:24.626Z,6.95
2023-04-14T12:56:27.418Z,8.27
2023-04-14T12:59:29.952Z,8.27
2023-04-14T13:02:33.306Z,6.00
2023-04-14T13:05:35.813Z,7.28
2023-04-14T13:08:41.948Z,7.32
2023-04-14T13:14:46.354Z,5.10
2023-04-14T13:17:48.750Z,5.75
2023-04-14T13:20:57.467Z,5.28
2023-04-14T13:23:59.897Z,6.30
2023-04-14T13:27:02.988Z,5.78
2023-04-14T13:30:06.271Z,6.00
2023-04-14T13:33:08.920Z,6.32
2023-04-14T13:36:11.319Z,6.35
2023-04-14T13:39:13.993Z,6.43
2023-04-14T13:42:16.455Z,5.43
2023-04-14T13:45:18.642Z,7.35
2023-04-14T13:48:21.005Z,5.45
2023-04-14T13:51:25.721Z,5.22
2023-04-14T13:54:28.131Z,6.65
2023-04-14T13:57:30.260Z,6.68
2023-04-14T14:00:32.784Z,5.35
2023-04-14T14:03:35.393Z,4.65
2023-04-14T14:06:37.620Z,4.03
2023-04-14T14:09:40.049Z,4.07
2023-04-14T14:12:42.258Z,4.35
2023-04-14T14:15:44.705Z,6.37
2023-04-14T14:18:47.311Z,7.22
2023-04-14T14:21:49.723Z,3.80
2023-04-14T14:24:52.226Z,3.15
2023-04-14T14:27:54.699Z,3.72
2023-04-14T14:30:56.891Z,3.20
2023-04-14T14:33:59.588Z,2.92
2023-04-14T14:37:01.825Z,2.45
2023-04-14T14:40:04.708Z,2.83
2023-04-14T14:43:06.796Z,3.28
2023-04-14T14:46:09.193Z,3.50
2023-04-14T14:49:13.139Z,4.32
2023-04-14T14:52:15.529Z,4.62
2023-04-14T14:55:17.756Z,2.80
2023-04-14T14:58:20.130Z,3.58
2023-04-14T15:01:22.686Z,3.85
2023-04-14T15:04:25.643Z,3.72
2023-04-14T15:07:28.097Z,3.87
2023-04-14T15:10:30.565Z,4.95
2023-04-14T15:13:33.107Z,5.35
2023-04-14T15:16:35.516Z,4.57
2023-04-14T15:19:38.115Z,4.65
2023-04-14T15:22:40.568Z,4.65
